Have a Safe July 4th! 

Flight Track Log - Related Links

Times and Time Zones

All times are in EDT time to prevent confusion due to time zone crossing. See the ASQ5941 flight status page for this flight to view local times or setup timezone preferences in your user account.

Time Position Orientation Groundspeed Altitude Reporting Facility
EDT Latitude Longitude Course Direction KTS MPH feet Rate Location/Type
Fri 05:15:45 PM 41.2631 -75.7972 220° Southwest 185 213 4,200  Level New York Center
Fri 05:16:45 PM 41.3069 -75.8392 324° Northwest 117 135 5,700 1,750 Climbing New York Center
Fri 05:17:00 PM 41.3820 -75.8640 304° West  Level FlightAware Approximate
Fri 05:17:45 PM 41.3628 -75.8986 321° Northwest 160 184 7,700  Level New York Center
Fri 05:18:00 PM 41.4321 -75.9484 315° West  Level FlightAware Approximate
Fri 05:18:45 PM 41.4139 -75.9689 314° West 225 259 9,600  Level New York Center
Fri 05:19:00 PM 41.4823 -76.0375 315° West  Level FlightAware Approximate
Fri 05:19:45 PM 41.4597 -76.0636 303° West 268 308 11,200  Level New York Center
Fri 05:20:00 PM 41.5401 -76.1185 312° West  Level FlightAware Approximate
Fri 05:20:45 PM 41.5072 -76.1617 303° West 300 345 11,700  Level New York Center
Fri 05:21:45 PM 41.5589 -76.2656 304° West 330 380 12,600 933 Climbing New York Center
Fri 05:23:45 PM 41.6672 -76.4856 303° West 356 410 14,500 967 Climbing New York Center
Fri 05:24:45 PM 41.7200 -76.5986 302° West 362 417 15,500 900 Climbing New York Center
Fri 05:25:45 PM 41.7711 -76.7003 304° West 362 417 16,300 1,016 Climbing New York Center
Fri 05:27:54 PM 41.8881 -76.9569 302° West 355 409 18,700 1,079 Climbing Cleveland Center
Fri 05:28:54 PM 41.9233 -77.0806 291° West 355 409 19,700 950 Climbing Cleveland Center
Fri 05:29:54 PM 41.9561 -77.1989 290° West 355 409 20,600 950 Climbing Cleveland Center
Fri 05:30:54 PM 41.9867 -77.3175 289° West 344 396 21,600 1,000 Climbing Cleveland Center
Fri 05:31:54 PM 42.0169 -77.4333 289° West 334 384 22,600 1,000 Climbing Cleveland Center
Fri 05:32:54 PM 42.0469 -77.5436 290° West 328 377 23,600 1,000 Climbing Cleveland Center
Fri 05:33:54 PM 42.0894 -77.6536 298° West 328 377 24,600 1,000 Climbing Cleveland Center
Fri 05:34:54 PM 42.1381 -77.7606 302° West 333 383 25,600 1,000 Climbing Cleveland Center
Fri 05:35:54 PM 42.1681 -77.8825 288° West 338 389 26,600 1,000 Climbing Cleveland Center
Fri 05:36:54 PM 42.1958 -77.9989 288° West 338 389 27,600 1,000 Climbing Cleveland Center
Fri 05:37:54 PM 42.2233 -78.1214 287° West 338 389 28,600 1,000 Climbing Cleveland Center
Fri 05:38:54 PM 42.2531 -78.2436 288° West 338 389 29,600 900 Climbing Cleveland Center
Fri 05:39:54 PM 42.2781 -78.3494 288° West 338 389 30,400 850 Climbing Cleveland Center
Fri 05:40:54 PM 42.3075 -78.4719 288° West 338 389 31,300 950 Climbing Cleveland Center
Fri 05:41:54 PM 42.3347 -78.5944 287° West 338 389 32,300 1,000 Climbing Cleveland Center
Fri 05:42:54 PM 42.3639 -78.7172 288° West 338 389 33,300 1,000 Climbing Cleveland Center
Fri 05:43:54 PM 42.3908 -78.8375 287° West 338 389 34,300 950 Climbing Cleveland Center
Fri 05:44:54 PM 42.4156 -78.9578 286° West 338 389 35,200 850 Climbing Cleveland Center
Fri 05:45:54 PM 42.4442 -79.0722 289° West 338 389 36,000 400 Climbing Cleveland Center
Fri 05:46:54 PM 42.4728 -79.1956 287° West 338 389 36,000  Level Cleveland Center
Fri 05:47:54 PM 42.4950 -79.3272 283° West 345 397 36,000  Level Cleveland Center
Fri 05:48:54 PM 42.5028 -79.4708 274° West 364 419 36,000  Level Cleveland Center
Fri 05:49:54 PM 42.4853 -79.6147 261° West 378 435 36,000  Level Cleveland Center
Fri 05:50:54 PM 42.4219 -79.7647 240° Southwest 419 482 36,000  Level Cleveland Center
Fri 05:51:54 PM 42.3622 -79.9003 239° Southwest 414 476 36,000  Level Cleveland Center
Fri 05:52:54 PM 42.3067 -80.0328 240° Southwest 414 476 36,000  Level Cleveland Center
Fri 05:53:54 PM 42.2489 -80.1681 240° Southwest 414 476 36,000  Level Cleveland Center
Fri 05:54:54 PM 42.1911 -80.3000 239° Southwest 414 476 36,000  Level Cleveland Center
Fri 05:55:54 PM 42.1328 -80.4319 239° Southwest 414 476 36,000  Level Cleveland Center
Fri 05:56:54 PM 42.0725 -80.5692 239° Southwest 422 486 36,000  Level Cleveland Center
Fri 05:57:54 PM 42.0225 -80.6867 240° Southwest 417 480 36,000  Level Cleveland Center
Fri 05:58:54 PM 41.9617 -80.8206 239° Southwest 417 480 36,000  Level Cleveland Center
Fri 05:59:54 PM 41.9031 -80.9514 239° Southwest 422 486 36,000  Level Cleveland Center
Fri 06:00:54 PM 41.8442 -81.0847 239° Southwest 422 486 36,000  Level Cleveland Center
Fri 06:01:54 PM 41.7853 -81.2208 240° Southwest 422 486 36,000  Level Cleveland Center
Fri 06:02:54 PM 41.7261 -81.3539 239° Southwest 422 486 36,000  Level Cleveland Center
Fri 06:03:54 PM 41.6667 -81.4864 239° Southwest 417 480 36,000  Level Cleveland Center
Fri 06:04:54 PM 41.6092 -81.6161 239° Southwest 423 487 36,000  Level Cleveland Center
Fri 06:05:54 PM 41.5744 -81.7600 252° West 403 464 36,000  Level Cleveland Center
Fri 06:06:54 PM 41.5522 -81.9039 258° West 398 458 36,000  Level Cleveland Center
Fri 06:07:54 PM 41.5317 -82.0506 259° West 403 464 36,000  Level Cleveland Center
Fri 06:08:54 PM 41.5064 -82.2053 258° West 403 464 36,000  Level Cleveland Center
Fri 06:09:54 PM 41.4856 -82.3517 259° West 403 464 36,000  Level Cleveland Center
Fri 06:10:54 PM 41.4644 -82.4950 259° West 403 464 36,000  Level Cleveland Center
Fri 06:11:54 PM 41.4433 -82.6358 259° West 403 464 36,000  Level Cleveland Center
Fri 06:12:54 PM 41.4219 -82.7792 259° West 398 458 36,000  Level Cleveland Center
Fri 06:13:54 PM 41.4044 -82.9253 261° West 398 458 36,000  Level Cleveland Center
Fri 06:14:54 PM 41.3847 -83.0683 260° West 403 464 36,000  Level Cleveland Center
Fri 06:15:54 PM 41.3628 -83.2142 259° West 403 464 36,000  Level Cleveland Center
Fri 06:16:54 PM 41.3592 -83.3581 268° West 403 464 36,000 -50 Level Cleveland Center
Fri 06:17:54 PM 41.3578 -83.5044 269° West 403 464 35,900 -350 Descending Cleveland Center
Fri 06:18:54 PM 41.3539 -83.6511 268° West 403 464 35,300 -700 Descending Cleveland Center
Fri 06:19:54 PM 41.3519 -83.7947 269° West 403 464 34,500 -722 Descending Cleveland Center
Fri 06:20:42 PM 41.3500 -83.9028 269° West 389 448 34,000 -273 Descending Chicago Center
Fri 06:21:44 PM 41.3492 -84.0417 270° West 381 438 34,000  Level Chicago Center
Fri 06:22:47 PM 41.3436 -84.1828 267° West 380 437 34,000  Level Chicago Center
Fri 06:23:49 PM 41.3125 -84.3231 254° West 387 445 34,000  Level Chicago Center
Fri 06:24:51 PM 41.2772 -84.4603 251° West 393 452 34,000  Level Chicago Center
Fri 06:25:53 PM 41.2378 -84.6225 252° West 387 445 34,000  Level Chicago Center
Fri 06:26:55 PM 41.1806 -84.7175 231° Southwest 359 413 34,000  Level Chicago Center
Fri 06:27:57 PM 41.0883 -84.6753 161° South 375 432 34,000  Level Chicago Center
Fri 06:28:59 PM 41.0906 -84.5350 89° East 400 460 34,000  Level Chicago Center
Fri 06:30:01 PM 41.1256 -84.3944 72° East 403 464 34,000  Level Chicago Center
Fri 06:31:03 PM 41.1617 -84.2514 71° East 408 470 34,000  Level Chicago Center
Fri 06:32:05 PM 41.2606 -84.1744 30° Northeast 394 453 34,000  Level Chicago Center
Fri 06:33:07 PM 41.3183 -84.2550 314° West 333 383 34,000  Level Chicago Center
Fri 06:34:10 PM 41.3000 -84.3717 258° West 324 373 34,000  Level Chicago Center
Fri 06:35:12 PM 41.2719 -84.4853 252° West 326 375 34,000  Level Chicago Center
Fri 06:36:14 PM 41.2428 -84.6000 251° West 326 375 34,000  Level Chicago Center
Fri 06:37:16 PM 41.1969 -84.7067 240° Southwest 345 397 34,000  Level Chicago Center
Fri 06:38:18 PM 41.0822 -84.6756 168° South 397 457 34,000  Level Chicago Center
Fri 06:39:20 PM 41.0831 -84.5325 90° East 401 461 34,000  Level Chicago Center
Fri 06:40:22 PM 41.1175 -84.3903 72° East 407 468 34,000  Level Chicago Center
Fri 06:41:24 PM 41.1542 -84.2472 71° East 410 472 34,000  Level Chicago Center
Fri 06:42:26 PM 41.2314 -84.1636 39° Northeast 393 452 34,000  Level Chicago Center
Fri 06:43:28 PM 41.3169 -84.2350 328° Northwest 334 384 34,000  Level Chicago Center
Fri 06:44:30 PM 41.3053 -84.3514 262° West 319 367 34,000  Level Chicago Center
Fri 06:45:32 PM 41.2761 -84.4672 252° West 328 377 34,000  Level Chicago Center
Fri 06:46:34 PM 41.2475 -84.5828 252° West 328 377 34,000  Level Chicago Center
Fri 06:47:36 PM 41.2089 -84.6939 245° Southwest 336 387 34,000  Level Chicago Center
Fri 06:48:39 PM 41.1103 -84.7094 187° South 384 442 34,000  Level Chicago Center
Fri 06:49:41 PM 41.0772 -84.5531 106° East 405 466 34,000  Level Chicago Center
Fri 06:50:43 PM 41.1125 -84.4117 72° East 404 465 34,000  Level Chicago Center
Fri 06:51:45 PM 41.1475 -84.2717 72° East 404 465 34,000  Level Chicago Center
Fri 06:52:47 PM 41.2156 -84.1669 49° Northeast 390 449 34,000  Level Chicago Center
Fri 06:53:49 PM 41.3003 -84.2017 343° North 342 394 34,000  Level Chicago Center
Fri 06:54:50 PM 41.3153 -84.3133 280° West 322 371 34,000  Level Chicago Center
Fri 06:55:52 PM 41.2797 -84.4508 251° West 328 377 34,000  Level Chicago Center
Fri 06:56:54 PM 41.2511 -84.5672 252° West 331 381 34,000  Level Chicago Center
Fri 06:57:56 PM 41.2211 -84.6850 251° West 335 386 34,000  Level Chicago Center
Fri 06:58:58 PM 41.1900 -84.8036 251° West 338 389 34,000 -290 Level Chicago Center
Fri 07:00:00 PM 41.1850 -84.9253 267° West 339 390 33,400 -774 Descending Chicago Center
Fri 07:01:02 PM 41.2522 -85.0236 312° West 364 419 32,400 -677 Descending Chicago Center
Fri 07:02:04 PM 41.3719 -85.0900 337° Northwest 391 450 32,000 -194 Descending Chicago Center
Fri 07:03:06 PM 41.4725 -85.1411 339° North 390 449 32,000  Level Chicago Center
Fri 07:04:08 PM 41.5742 -85.1931 339° North 394 453 32,000  Level Chicago Center
Fri 07:05:10 PM 41.6764 -85.2447 339° North 401 461 32,000 -435 Level Chicago Center
Fri 07:06:12 PM 41.7647 -85.3331 323° Northwest 406 467 31,100 -1,790 Descending Chicago Center
Fri 07:07:14 PM 41.8664 -85.4481 320° Northwest 405 466 28,300 -2,855 Descending Chicago Center
Fri 07:08:16 PM 41.9511 -85.5494 318° Northwest 409 471 25,200 -2,098 Descending Chicago Center
Fri 07:09:17 PM 41.9775 -85.6911 284° West 397 457 24,000 -585 Descending Chicago Center
Fri 07:10:19 PM 42.0172 -85.8483 289° West 400 460 24,000  Level Chicago Center
Fri 07:11:21 PM 42.0625 -85.9775 295° West 383 441 24,000 -1,065 Level Chicago Center
Fri 07:12:23 PM 42.1036 -86.1075 293° West 359 413 21,800 -2,293 Descending Chicago Center
Fri 07:13:24 PM 42.1339 -86.2300 288° West 348 400 19,300 -2,488 Descending Chicago Center
Fri 07:14:26 PM 42.1606 -86.3500 287° West 338 389 16,700 -1,645 Descending Chicago Center
Fri 07:15:28 PM 42.2044 -86.4500 301° West 311 358 15,900 -339 Descending Chicago Center
Fri 07:16:30 PM 42.2644 -86.5306 315° West 307 353 16,000 49 Climbing Chicago Center
Fri 07:17:31 PM 42.3544 -86.5778 339° North 305 351 16,000  Level Chicago Center
Fri 07:18:33 PM 42.4311 -86.6111 342° North 291 335 16,000  Level Chicago Center
Fri 07:19:35 PM 42.5069 -86.6539 337° Northwest 294 338 16,000 -293 Level Chicago Center
Fri 07:20:36 PM 42.5803 -86.7072 332° Northwest 300 345 15,400 -927 Descending Chicago Center
Fri 07:21:38 PM 42.6239 -86.7906 305° West 300 345 14,100 -1,415 Descending Chicago Center
Fri 07:22:39 PM 42.6381 -86.9003 280° West 300 345 12,500 -1,707 Descending Chicago Center
Fri 07:23:41 PM 42.6514 -87.0092 279° West 293 337 10,600 -1,210 Descending Chicago Center
Fri 07:24:43 PM 42.6672 -87.1156 281° West 288 331 10,000 -293 Descending Chicago Center
Fri 07:25:44 PM 42.6822 -87.2381 279° West 278 320 10,000  Level Chicago Center
Fri 07:26:46 PM 42.6981 -87.3450 281° West 288 331 10,000 -146 Level Chicago Center
Fri 07:27:47 PM 42.7656 -87.3936 332° Northwest 286 329 9,700 -1,024 Descending Chicago Center
Fri 07:28:49 PM 42.8403 -87.4283 341° North 284 327 7,900 -1,268 Descending Chicago Center
Fri 07:29:50 PM 42.9067 -87.4622 340° North 264 304 7,100 -683 Descending Chicago Center
Fri 07:30:52 PM 42.9756 -87.4942 341° North 234 269 6,500 -1,122 Descending Chicago Center
Fri 07:31:53 PM 43.0319 -87.5281 336° Northwest 224 258 4,800 -1,659 Descending Chicago Center
Fri 07:32:55 PM 43.0128 -87.6097 252° West 223 257 3,100 -1,113 Descending Chicago Center
Fri 07:33:57 PM 42.9919 -87.6919 251° West 229 264 2,500 -293 Descending Chicago Center
Fri 07:34:58 PM 42.9767 -87.7647 254° West 213 245 2,500 -341 Level Chicago Center
Fri 07:36:00 PM 42.9617 -87.8253 251° West 189 217 1,800 -585 Descending Chicago Center
Fri 07:37:01 PM 42.9478 -87.8794 251° West 176 203 1,300 -492 Descending Chicago Center
Fri 07:39:00 PM 42.9333 -87.8833 248° West  Level FlightAware Approximate

Login

Don't have an account? Register now (free) for customized features, flight alerts, and more!